Time;durP1;ratioP1;P1;durP2;ratioP2;P2;SDS_P1;SDS_P2;PMS_P1;PMS_P2;Temp;Humidity;BMP_temperature;BMP_pressure;BME280_temperature;BME280_humidity;BME280_pressure;Samples;Min_cycle;Max_cycle;Signal;HPM_P1;HPM_P2
2023/10/05 00:01:45;;;;;;;;;;;;;;;;;;5099297;28;19931;-51
2023/10/05 00:04:14;;;;;;;;;;;;;;;;;;5099364;28;19927;-57
2023/10/05 00:06:42;;;;;;;;;;;;;;;;;;5099140;28;19915;-57
2023/10/05 00:09:12;;;;;;;;;;;;;;;;;;5115479;28;19912;-54
2023/10/05 00:11:39;;;;;;;;;;;;;;;;;;5119228;28;19943;-54
2023/10/05 00:14:06;;;;;;;;;;;;;;;;;;5105381;28;19923;-54
2023/10/05 00:16:38;;;;;;;;;;;;;;;;;;5081244;28;19918;-53
2023/10/05 00:19:13;;;;;;;;;;;;;;;;;;5111626;28;19912;-55
2023/10/05 00:21:42;;;;;;;;;;;;;;;;;;5098614;28;19951;-57
2023/10/05 00:24:07;;;;;;;;;;;;;;;;;;5098281;28;19941;-54
2023/10/05 00:26:33;;;;;;;;;;;;;;;;;;5098440;28;19920;-55
2023/10/05 00:29:05;;;;;;;;;;;;;;;;;;5091480;28;19971;-54
2023/10/05 00:31:32;;;;;;;;;;;;;;;;;;5134499;28;19929;-56
2023/10/05 00:33:58;;;;;;;;;;;;;;;;;;5133452;28;19916;-55
2023/10/05 00:36:32;;;;;;;;;;;;;;;;;;5100233;28;19943;-56
2023/10/05 00:39:01;;;;;;;;;;;;;;;;;;5107756;28;19912;-56
2023/10/05 00:41:26;;;;;;;;;;;;;;;;;;5116587;28;19991;-56
2023/10/05 00:43:53;;;;;;;;;;;;;;;;;;5113384;28;19946;-56
2023/10/05 00:46:20;;;;;;;;;;;;;;;;;;5098274;28;19919;-58
2023/10/05 00:51:32;;;;;;;;;;;;;;;;;;5098686;28;19912;-58
2023/10/05 00:53:58;;;;;;;;;;;;;;;;;;5133414;28;19946;-55
2023/10/05 00:56:24;;;;;;;;;;;;;;;;;;5116515;28;19912;-56
2023/10/05 00:58:55;;;;;;;;;;;;;;;;;;5117545;28;19980;-56
2023/10/05 01:01:33;;;;;;;;;;;;;;;;;;5116075;28;19920;-56
2023/10/05 01:06:45;;;;;;;;;;;;;;;;;;5085399;28;19917;-56
2023/10/05 01:12:11;;;;;;;;;;;;;;;;;;5117583;28;19912;-55
2023/10/05 01:14:37;;;;;;;;;;;;;;;;;;5084766;28;19919;-56
2023/10/05 01:17:03;;;;;;;;;;;;;;;;;;5080153;28;19913;-57
2023/10/05 01:19:28;;;;;;;;;;;;;;;;;;5101236;28;19916;-56
2023/10/05 01:21:53;;;;;;;;;;;;;;;;;;5110998;28;19984;-58
2023/10/05 01:24:23;;;;;;;;;;;;;;;;;;5112994;28;19920;-56
2023/10/05 01:26:49;;;;;;;;;;;;;;;;;;5098324;28;19934;-55
2023/10/05 01:29:14;;;;;;;;;;;;;;;;;;5116428;28;19971;-56
2023/10/05 01:31:40;;;;;;;;;;;;;;;;;;5130395;28;19967;-57
2023/10/05 01:34:05;;;;;;;;;;;;;;;;;;5109712;28;19912;-56
2023/10/05 01:36:31;;;;;;;;;;;;;;;;;;5110517;28;19916;-57
2023/10/05 01:39:09;;;;;;;;;;;;;;;;;;5102092;28;19916;-56
2023/10/05 01:41:37;;;;;;;;;;;;;;;;;;5114475;28;19946;-54
2023/10/05 01:44:04;;;;;;;;;;;;;;;;;;5079314;28;19912;-56
2023/10/05 01:46:35;;;;;;;;;;;;;;;;;;5097201;28;20543;-58
2023/10/05 01:49:01;;;;;;;;;;;;;;;;;;5117583;28;19908;-56
2023/10/05 01:51:26;;;;;;;;;;;;;;;;;;5082080;28;19950;-58
2023/10/05 01:53:56;;;;;;;;;;;;;;;;;;5113006;28;19897;-57
2023/10/05 01:56:22;;;;;;;;;;;;;;;;;;5113608;28;19921;-56
2023/10/05 01:58:50;;;;;;;;;;;;;;;;;;5114612;28;19913;-56
2023/10/05 02:01:16;;;;;;;;;;;;;;;;;;5081364;28;19916;-53
2023/10/05 02:03:41;;;;;;;;;;;;;;;;;;5112688;28;19919;-57
2023/10/05 02:06:11;;;;;;;;;;;;;;;;;;5108137;28;19917;-58
2023/10/05 02:08:37;;;;;;;;;;;;;;;;;;5107903;28;19916;-53
2023/10/05 02:11:07;;;;;;;;;;;;;;;;;;5111184;28;19916;-58
2023/10/05 02:13:32;;;;;;;;;;;;;;;;;;5096346;28;19980;-56
2023/10/05 02:15:59;;;;;;;;;;;;;;;;;;5121611;28;19919;-55
2023/10/05 02:18:24;;;;;;;;;;;;;;;;;;5131364;28;19912;-55
2023/10/05 02:21:53;;;;;;;;;;;;;;;;;;5097174;28;19969;-55
2023/10/05 02:23:47;;;;;;;;;;;;;;;;;;5078809;28;19947;-55
2023/10/05 02:28:57;;;;;;;;;;;;;;;;;;5095978;28;19920;-55
2023/10/05 02:31:22;;;;;;;;;;;;;;;;;;5086524;28;19916;-54
2023/10/05 02:33:48;;;;;;;;;;;;;;;;;;5096596;28;19912;-53
2023/10/05 02:38:39;;;;;;;;;;;;;;;;;;5091837;28;19912;-55
2023/10/05 02:41:05;;;;;;;;;;;;;;;;;;5095725;28;19951;-56
2023/10/05 02:43:38;;;;;;;;;;;;;;;;;;5100870;28;19920;-54
2023/10/05 02:46:11;;;;;;;;;;;;;;;;;;5130285;28;19912;-57
2023/10/05 02:48:38;;;;;;;;;;;;;;;;;;5095995;28;19913;-55
2023/10/05 02:51:05;;;;;;;;;;;;;;;;;;5113645;28;19934;-57
2023/10/05 02:53:34;;;;;;;;;;;;;;;;;;5124792;28;19950;-57
2023/10/05 02:56:02;;;;;;;;;;;;;;;;;;5120447;28;19923;-55
2023/10/05 02:58:27;;;;;;;;;;;;;;;;;;5111505;28;19923;-54
2023/10/05 03:00:53;;;;;;;;;;;;;;;;;;5123762;28;19912;-56
2023/10/05 03:03:18;;;;;;;;;;;;;;;;;;5095130;28;19959;-55
2023/10/05 03:05:43;;;;;;;;;;;;;;;;;;5097802;28;19916;-56
2023/10/05 03:08:09;;;;;;;;;;;;;;;;;;5090177;28;19947;-53
2023/10/05 03:10:34;;;;;;;;;;;;;;;;;;5086998;28;19990;-58
2023/10/05 03:13:02;;;;;;;;;;;;;;;;;;5095299;28;19919;-57
2023/10/05 03:15:28;;;;;;;;;;;;;;;;;;5077620;28;19917;-55
2023/10/05 03:17:58;;;;;;;;;;;;;;;;;;5111775;28;19919;-55
2023/10/05 03:20:28;;;;;;;;;;;;;;;;;;5111144;28;19912;-54
2023/10/05 03:22:55;;;;;;;;;;;;;;;;;;5086637;28;19984;-54
2023/10/05 03:25:21;;;;;;;;;;;;;;;;;;5115167;28;19920;-53
2023/10/05 03:27:48;;;;;;;;;;;;;;;;;;5086489;28;19937;-58
2023/10/05 03:30:16;;;;;;;;;;;;;;;;;;5102289;28;19922;-56
2023/10/05 03:32:48;;;;;;;;;;;;;;;;;;5110136;28;19912;-56
2023/10/05 03:35:14;;;;;;;;;;;;;;;;;;5111517;28;19919;-58
2023/10/05 03:37:41;;;;;;;;;;;;;;;;;;5078094;28;19943;-58
2023/10/05 03:40:19;;;;;;;;;;;;;;;;;;5113402;28;19955;-52
2023/10/05 03:42:46;;;;;;;;;;;;;;;;;;5102813;28;19916;-57
2023/10/05 03:45:16;;;;;;;;;;;;;;;;;;5111702;28;19913;-57
2023/10/05 03:47:43;;;;;;;;;;;;;;;;;;5112966;28;19912;-54
2023/10/05 03:50:16;;;;;;;;;;;;;;;;;;5080846;28;19912;-57
2023/10/05 03:52:44;;;;;;;;;;;;;;;;;;5083478;28;19923;-55
2023/10/05 03:55:10;;;;;;;;;;;;;;;;;;5111066;28;19909;-57
2023/10/05 03:57:36;;;;;;;;;;;;;;;;;;5114160;28;19913;-56
2023/10/05 04:00:23;;;;;;;;;;;;;;;;;;5095188;28;19955;-57
2023/10/05 04:02:50;;;;;;;;;;;;;;;;;;5077783;28;19916;-55
2023/10/05 04:05:20;;;;;;;;;;;;;;;;;;5110692;28;19920;-56
2023/10/05 04:07:47;;;;;;;;;;;;;;;;;;5086514;28;20441;-57
2023/10/05 04:10:15;;;;;;;;;;;;;;;;;;5096594;28;19912;-57
2023/10/05 04:12:40;;;;;;;;;;;;;;;;;;5095912;28;19971;-56
2023/10/05 04:15:11;;;;;;;;;;;;;;;;;;5094419;28;19917;-57
2023/10/05 04:17:37;;;;;;;;;;;;;;;;;;5109624;28;19916;-56
2023/10/05 04:20:19;;;;;;;;;;;;;;;;;;5114346;28;19912;-57
2023/10/05 04:22:47;;;;;;;;;;;;;;;;;;5102118;28;19955;-56
2023/10/05 04:25:16;;;;;;;;;;;;;;;;;;5112954;28;19923;-57
2023/10/05 04:27:41;;;;;;;;;;;;;;;;;;5113734;28;19912;-57
2023/10/05 04:30:07;;;;;;;;;;;;;;;;;;5113108;28;19916;-56
2023/10/05 04:32:32;;;;;;;;;;;;;;;;;;5103091;28;19979;-55
2023/10/05 04:34:58;;;;;;;;;;;;;;;;;;5113119;28;19944;-55
2023/10/05 04:37:25;;;;;;;;;;;;;;;;;;5109622;28;19979;-57
2023/10/05 04:39:51;;;;;;;;;;;;;;;;;;5113392;28;19912;-54
2023/10/05 04:42:16;;;;;;;;;;;;;;;;;;5115960;28;19976;-56
2023/10/05 04:44:42;;;;;;;;;;;;;;;;;;5117003;28;19939;-57
2023/10/05 04:47:09;;;;;;;;;;;;;;;;;;5096800;28;19913;-57
2023/10/05 04:49:36;;;;;;;;;;;;;;;;;;5097469;28;19951;-57
2023/10/05 04:52:05;;;;;;;;;;;;;;;;;;5104856;28;19920;-56
2023/10/05 04:54:34;;;;;;;;;;;;;;;;;;5099987;28;19930;-58
2023/10/05 04:57:07;;;;;;;;;;;;;;;;;;5094492;28;19959;-59
2023/10/05 05:02:11;;;;;;;;;;;;;;;;;;5095298;28;19968;-57
2023/10/05 05:05:04;;;;;;;;;;;;;;;;;;5108296;28;19946;-58
2023/10/05 05:07:29;;;;;;;;;;;;;;;;;;5094618;28;19916;-57
2023/10/05 05:09:55;;;;;;;;;;;;;;;;;;5111865;28;19917;-53
2023/10/05 05:12:24;;;;;;;;;;;;;;;;;;5104021;28;19921;-54
2023/10/05 05:14:51;;;;;;;;;;;;;;;;;;5113474;28;19912;-55
2023/10/05 05:17:22;;;;;;;;;;;;;;;;;;5104902;28;19924;-57
2023/10/05 05:19:47;;;;;;;;;;;;;;;;;;5097329;28;19920;-57
2023/10/05 05:22:13;;;;;;;;;;;;;;;;;;5110724;28;19998;-55
2023/10/05 05:24:39;;;;;;;;;;;;;;;;;;5116256;28;19912;-57
2023/10/05 05:27:10;;;;;;;;;;;;;;;;;;5113180;28;19961;-56
2023/10/05 05:29:36;;;;;;;;;;;;;;;;;;5108183;28;19912;-57
2023/10/05 05:32:10;;;;;;;;;;;;;;;;;;5097964;28;19920;-54
2023/10/05 05:34:35;;;;;;;;;;;;;;;;;;5097568;28;20312;-57
2023/10/05 05:37:01;;;;;;;;;;;;;;;;;;5101754;28;19913;-56
2023/10/05 05:39:26;;;;;;;;;;;;;;;;;;5105321;28;19923;-58
2023/10/05 05:41:59;;;;;;;;;;;;;;;;;;5103220;28;19943;-57
2023/10/05 05:44:24;;;;;;;;;;;;;;;;;;5100301;28;19979;-56
2023/10/05 05:46:51;;;;;;;;;;;;;;;;;;5104933;28;19938;-56
2023/10/05 05:49:17;;;;;;;;;;;;;;;;;;5109933;28;19940;-57
2023/10/05 05:51:44;;;;;;;;;;;;;;;;;;5094885;28;19920;-56
2023/10/05 05:54:10;;;;;;;;;;;;;;;;;;5102255;28;19913;-59
2023/10/05 05:56:36;;;;;;;;;;;;;;;;;;5101824;28;19975;-56
2023/10/05 05:59:02;;;;;;;;;;;;;;;;;;5105383;28;19912;-56
2023/10/05 06:01:28;;;;;;;;;;;;;;;;;;5104192;28;19927;-57
2023/10/05 06:03:53;;;;;;;;;;;;;;;;;;5106244;28;19913;-57
2023/10/05 06:06:21;;;;;;;;;;;;;;;;;;5106285;28;19916;-56
2023/10/05 06:08:47;;;;;;;;;;;;;;;;;;5105663;28;20370;-56
2023/10/05 06:11:12;;;;;;;;;;;;;;;;;;5108831;28;19912;-57
2023/10/05 06:13:38;;;;;;;;;;;;;;;;;;5075969;28;19913;-57
2023/10/05 06:16:03;;;;;;;;;;;;;;;;;;5100259;28;19912;-57
2023/10/05 06:18:31;;;;;;;;;;;;;;;;;;5101746;28;19912;-56
2023/10/05 06:20:56;;;;;;;;;;;;;;;;;;5099920;28;20078;-56
2023/10/05 06:23:22;;;;;;;;;;;;;;;;;;5113511;28;19920;-57
2023/10/05 06:25:48;;;;;;;;;;;;;;;;;;5113435;28;19912;-57
2023/10/05 06:28:14;;;;;;;;;;;;;;;;;;5106207;28;19919;-57
2023/10/05 06:30:40;;;;;;;;;;;;;;;;;;5104841;28;19968;-56
2023/10/05 06:33:07;;;;;;;;;;;;;;;;;;5090140;28;19913;-57
2023/10/05 06:35:32;;;;;;;;;;;;;;;;;;5108761;28;19909;-57
2023/10/05 06:37:58;;;;;;;;;;;;;;;;;;5090920;28;19962;-57
2023/10/05 06:40:23;;;;;;;;;;;;;;;;;;5076860;28;19975;-53
2023/10/05 06:42:49;;;;;;;;;;;;;;;;;;5092252;28;19928;-54
2023/10/05 06:45:15;;;;;;;;;;;;;;;;;;5093272;28;19916;-57
2023/10/05 06:47:41;;;;;;;;;;;;;;;;;;5093365;28;19934;-57
2023/10/05 06:50:08;;;;;;;;;;;;;;;;;;5103529;28;19916;-54
2023/10/05 06:52:36;;;;;;;;;;;;;;;;;;5102503;28;19938;-55
2023/10/05 06:55:07;;;;;;;;;;;;;;;;;;5089946;28;19939;-56
2023/10/05 06:57:32;;;;;;;;;;;;;;;;;;5101911;28;19916;-58
2023/10/05 06:59:58;;;;;;;;;;;;;;;;;;5101966;28;19973;-56
2023/10/05 07:02:24;;;;;;;;;;;;;;;;;;5092652;28;19916;-58
2023/10/05 07:04:49;;;;;;;;;;;;;;;;;;5101947;28;19912;-57
2023/10/05 07:07:15;;;;;;;;;;;;;;;;;;5104751;28;19919;-56
2023/10/05 07:09:40;;;;;;;;;;;;;;;;;;5109901;28;19912;-57
2023/10/05 07:12:06;;;;;;;;;;;;;;;;;;5092535;28;19966;-56
2023/10/05 07:14:31;;;;;;;;;;;;;;;;;;5077966;28;19923;-55
2023/10/05 07:16:56;;;;;;;;;;;;;;;;;;5106884;28;19912;-54
2023/10/05 07:19:22;;;;;;;;;;;;;;;;;;5113443;28;19928;-56
2023/10/05 07:21:47;;;;;;;;;;;;;;;;;;5110991;28;19927;-55
2023/10/05 07:24:13;;;;;;;;;;;;;;;;;;5113766;28;19980;-55
2023/10/05 07:26:38;;;;;;;;;;;;;;;;;;5086935;28;19913;-58
2023/10/05 07:29:04;;;;;;;;;;;;;;;;;;5099188;28;19912;-57
2023/10/05 07:31:29;;;;;;;;;;;;;;;;;;5082497;28;19923;-59
2023/10/05 07:33:55;;;;;;;;;;;;;;;;;;5101799;28;19920;-58
2023/10/05 07:36:20;;;;;;;;;;;;;;;;;;5084573;28;19945;-57
2023/10/05 07:38:46;;;;;;;;;;;;;;;;;;5099922;28;19972;-55
2023/10/05 07:41:11;;;;;;;;;;;;;;;;;;5086301;28;19917;-56
2023/10/05 07:43:37;;;;;;;;;;;;;;;;;;5098114;28;19960;-54
2023/10/05 07:46:06;;;;;;;;;;;;;;;;;;5089104;28;19923;-57
2023/10/05 07:48:31;;;;;;;;;;;;;;;;;;5094828;28;19916;-53
2023/10/05 07:50:58;;;;;;;;;;;;;;;;;;5097581;28;19964;-54
2023/10/05 07:53:25;;;;;;;;;;;;;;;;;;5093698;28;19962;-53
2023/10/05 07:55:50;;;;;;;;;;;;;;;;;;5092943;28;19920;-56
2023/10/05 07:58:16;;;;;;;;;;;;;;;;;;5086559;28;19975;-56
2023/10/05 08:00:42;;;;;;;;;;;;;;;;;;5098236;28;19935;-58
2023/10/05 08:03:07;;;;;;;;;;;;;;;;;;5092731;28;19920;-57
2023/10/05 08:05:32;;;;;;;;;;;;;;;;;;5104980;28;19944;-56
2023/10/05 08:07:58;;;;;;;;;;;;;;;;;;5103009;28;19913;-54
2023/10/05 08:10:23;;;;;;;;;;;;;;;;;;5103214;28;19912;-55
2023/10/05 08:12:49;;;;;;;;;;;;;;;;;;5109842;28;19912;-55
2023/10/05 08:15:17;;;;;;;;;;;;;;;;;;5090857;28;19919;-56
2023/10/05 08:17:42;;;;;;;;;;;;;;;;;;5101812;28;19908;-57
2023/10/05 08:20:08;;;;;;;;;;;;;;;;;;5107208;28;19919;-58
2023/10/05 08:22:33;;;;;;;;;;;;;;;;;;5118091;28;19916;-58
2023/10/05 08:25:00;;;;;;;;;;;;;;;;;;5117947;28;19985;-57
2023/10/05 08:27:25;;;;;;;;;;;;;;;;;;5119842;28;19923;-57
2023/10/05 08:29:50;;;;;;;;;;;;;;;;;;5108336;28;19912;-59
2023/10/05 08:32:16;;;;;;;;;;;;;;;;;;5101550;28;19912;-57
2023/10/05 08:34:44;;;;;;;;;;;;;;;;;;5103311;28;19983;-57
2023/10/05 08:37:11;;;;;;;;;;;;;;;;;;5107194;28;19912;-58
2023/10/05 08:39:37;;;;;;;;;;;;;;;;;;5101150;28;19917;-58
2023/10/05 08:42:06;;;;;;;;;;;;;;;;;;5113665;28;19936;-57
2023/10/05 08:44:36;;;;;;;;;;;;;;;;;;5114666;28;19912;-58
2023/10/05 08:47:05;;;;;;;;;;;;;;;;;;5107107;28;19916;-58
2023/10/05 08:49:32;;;;;;;;;;;;;;;;;;5105255;28;19958;-59
2023/10/05 08:51:59;;;;;;;;;;;;;;;;;;5106546;28;19988;-58
2023/10/05 08:54:28;;;;;;;;;;;;;;;;;;5102279;28;19912;-56
2023/10/05 08:56:53;;;;;;;;;;;;;;;;;;5114604;28;19919;-56
2023/10/05 08:59:19;;;;;;;;;;;;;;;;;;5109439;28;19980;-55
2023/10/05 09:01:46;;;;;;;;;;;;;;;;;;5087758;28;19916;-57
2023/10/05 09:06:38;;;;;;;;;;;;;;;;;;5099680;28;19916;-53
2023/10/05 09:11:31;;;;;;;;;;;;;;;;;;5094180;28;19923;-55
2023/10/05 09:13:58;;;;;;;;;;;;;;;;;;5098982;28;19916;-57
2023/10/05 09:16:30;;;;;;;;;;;;;;;;;;5111787;28;19916;-58
2023/10/05 09:18:57;;;;;;;;;;;;;;;;;;5098461;28;19912;-59
2023/10/05 09:21:25;;;;;;;;;;;;;;;;;;5090674;28;19977;-57
2023/10/05 09:23:51;;;;;;;;;;;;;;;;;;5100622;28;19940;-57
2023/10/05 09:26:16;;;;;;;;;;;;;;;;;;5110935;28;19912;-55
2023/10/05 09:28:51;;;;;;;;;;;;;;;;;;5114262;28;19913;-57
2023/10/05 09:31:19;;;;;;;;;;;;;;;;;;5098705;28;19912;-57
2023/10/05 09:33:44;;;;;;;;;;;;;;;;;;5112610;28;19930;-57
2023/10/05 09:36:10;;;;;;;;;;;;;;;;;;5114221;28;19912;-57
2023/10/05 09:38:38;;;;;;;;;;;;;;;;;;5108365;28;19940;-58
2023/10/05 09:41:03;;;;;;;;;;;;;;;;;;5096221;28;19920;-58
2023/10/05 09:43:28;;;;;;;;;;;;;;;;;;5105434;28;19959;-57
2023/10/05 09:45:53;;;;;;;;;;;;;;;;;;5102495;28;19923;-56
2023/10/05 09:48:19;;;;;;;;;;;;;;;;;;5092744;28;19983;-58
2023/10/05 09:50:44;;;;;;;;;;;;;;;;;;5084524;28;19924;-58
2023/10/05 09:53:11;;;;;;;;;;;;;;;;;;5084473;28;19980;-59
2023/10/05 09:55:36;;;;;;;;;;;;;;;;;;5071491;28;19913;-58
2023/10/05 09:58:12;;;;;;;;;;;;;;;;;;5090136;28;19923;-58
2023/10/05 10:03:03;;;;;;;;;;;;;;;;;;5102570;28;19916;-59
2023/10/05 10:05:33;;;;;;;;;;;;;;;;;;5086235;28;19917;-56
2023/10/05 10:07:59;;;;;;;;;;;;;;;;;;5109277;28;19919;-58
2023/10/05 10:10:25;;;;;;;;;;;;;;;;;;5104844;28;19913;-57
2023/10/05 10:12:51;;;;;;;;;;;;;;;;;;5102832;28;19978;-58
2023/10/05 10:15:25;;;;;;;;;;;;;;;;;;5123187;28;19928;-57
2023/10/05 10:17:53;;;;;;;;;;;;;;;;;;5103294;28;19934;-54
2023/10/05 10:20:34;;;;;;;;;;;;;;;;;;5110102;28;19909;-55
2023/10/05 10:23:00;;;;;;;;;;;;;;;;;;5095343;28;19959;-57
2023/10/05 10:25:25;;;;;;;;;;;;;;;;;;5103085;28;19924;-59
2023/10/05 10:27:51;;;;;;;;;;;;;;;;;;5092845;28;19916;-58
2023/10/05 10:30:23;;;;;;;;;;;;;;;;;;5094741;28;19912;-58
2023/10/05 10:32:49;;;;;;;;;;;;;;;;;;5097622;28;19936;-58
2023/10/05 10:35:26;;;;;;;;;;;;;;;;;;5106188;28;19990;-58
2023/10/05 10:37:54;;;;;;;;;;;;;;;;;;5082178;28;19921;-57
2023/10/05 10:42:45;;;;;;;;;;;;;;;;;;5094419;28;19952;-59
2023/10/05 10:45:12;;;;;;;;;;;;;;;;;;5106142;28;19912;-58
2023/10/05 10:47:39;;;;;;;;;;;;;;;;;;5095143;28;19916;-59
2023/10/05 10:50:16;;;;;;;;;;;;;;;;;;5094755;28;19912;-60
2023/10/05 10:52:45;;;;;;;;;;;;;;;;;;5093658;28;19935;-59
2023/10/05 10:55:16;;;;;;;;;;;;;;;;;;5110319;28;19935;-60
2023/10/05 10:57:44;;;;;;;;;;;;;;;;;;5100619;28;19919;-60
2023/10/05 11:02:56;;;;;;;;;;;;;;;;;;5104211;28;19924;-58
2023/10/05 11:05:26;;;;;;;;;;;;;;;;;;5107304;28;19990;-59
2023/10/05 11:07:59;;;;;;;;;;;;;;;;;;5104399;28;19912;-59
2023/10/05 11:10:30;;;;;;;;;;;;;;;;;;5086015;28;19913;-59
2023/10/05 11:12:57;;;;;;;;;;;;;;;;;;5096916;28;19983;-59
2023/10/05 11:15:28;;;;;;;;;;;;;;;;;;5097526;28;19917;-59
2023/10/05 11:17:55;;;;;;;;;;;;;;;;;;5096626;28;19912;-59
2023/10/05 11:20:24;;;;;;;;;;;;;;;;;;5095055;28;20008;-59
2023/10/05 11:22:55;;;;;;;;;;;;;;;;;;5106024;28;19916;-59
2023/10/05 11:25:31;;;;;;;;;;;;;;;;;;5114273;28;19912;-58
2023/10/05 11:27:56;;;;;;;;;;;;;;;;;;5114405;28;19934;-59
2023/10/05 11:30:22;;;;;;;;;;;;;;;;;;5113734;28;19995;-58
2023/10/05 11:32:54;;;;;;;;;;;;;;;;;;5105308;28;19916;-59
2023/10/05 11:35:28;;;;;;;;;;;;;;;;;;5100763;28;19916;-60
2023/10/05 11:38:03;;;;;;;;;;;;;;;;;;5102780;28;19912;-59
2023/10/05 11:40:30;;;;;;;;;;;;;;;;;;5077398;28;19927;-60
2023/10/05 11:42:56;;;;;;;;;;;;;;;;;;5094550;28;19916;-60
2023/10/05 11:45:22;;;;;;;;;;;;;;;;;;5101673;28;19927;-59
2023/10/05 11:47:54;;;;;;;;;;;;;;;;;;5097084;28;19912;-60
2023/10/05 11:50:41;;;;;;;;;;;;;;;;;;5095121;28;19913;-59
2023/10/05 11:53:11;;;;;;;;;;;;;;;;;;5100923;28;19912;-58
2023/10/05 11:55:36;;;;;;;;;;;;;;;;;;5112056;28;19912;-59
2023/10/05 11:58:02;;;;;;;;;;;;;;;;;;5100232;28;19935;-59
2023/10/05 12:00:31;;;;;;;;;;;;;;;;;;5080644;28;19922;-59
2023/10/05 12:02:56;;;;;;;;;;;;;;;;;;5114269;28;19923;-59
2023/10/05 12:05:25;;;;;;;;;;;;;;;;;;5100340;28;19920;-59
2023/10/05 12:07:51;;;;;;;;;;;;;;;;;;5117891;28;19919;-59
2023/10/05 12:10:17;;;;;;;;;;;;;;;;;;5118154;28;19950;-59
2023/10/05 12:12:48;;;;;;;;;;;;;;;;;;5106686;28;19912;-60
2023/10/05 12:15:17;;;;;;;;;;;;;;;;;;5117808;28;19913;-59
2023/10/05 12:17:44;;;;;;;;;;;;;;;;;;5110646;28;19912;-58
2023/10/05 12:20:13;;;;;;;;;;;;;;;;;;5097756;28;19923;-58
2023/10/05 12:22:39;;;;;;;;;;;;;;;;;;5105528;28;19931;-56
2023/10/05 12:25:08;;;;;;;;;;;;;;;;;;5097490;28;19917;-58
2023/10/05 12:27:35;;;;;;;;;;;;;;;;;;5098392;28;19919;-59
2023/10/05 12:30:00;;;;;;;;;;;;;;;;;;5103983;28;19912;-58
2023/10/05 12:32:26;;;;;;;;;;;;;;;;;;5112861;28;19946;-58
2023/10/05 12:34:52;;;;;;;;;;;;;;;;;;5116958;28;19912;-58
2023/10/05 12:37:19;;;;;;;;;;;;;;;;;;5110047;28;19923;-58
2023/10/05 12:39:45;;;;;;;;;;;;;;;;;;5111474;28;19908;-59
2023/10/05 12:42:11;;;;;;;;;;;;;;;;;;5111998;28;19946;-60
2023/10/05 12:44:36;;;;;;;;;;;;;;;;;;5103257;28;19984;-58
2023/10/05 12:47:02;;;;;;;;;;;;;;;;;;5106535;28;19928;-59
2023/10/05 12:49:27;;;;;;;;;;;;;;;;;;5103350;28;19923;-59
2023/10/05 12:51:53;;;;;;;;;;;;;;;;;;5105619;28;19912;-59
2023/10/05 12:54:18;;;;;;;;;;;;;;;;;;5100508;28;19912;-58
2023/10/05 12:56:44;;;;;;;;;;;;;;;;;;5103855;28;19920;-59
2023/10/05 12:59:09;;;;;;;;;;;;;;;;;;5103066;28;19912;-60
2023/10/05 13:01:43;;;;;;;;;;;;;;;;;;5108113;28;19938;-58
2023/10/05 13:04:09;;;;;;;;;;;;;;;;;;5103887;28;19919;-59
2023/10/05 13:06:34;;;;;;;;;;;;;;;;;;5106470;28;19920;-58
2023/10/05 13:09:04;;;;;;;;;;;;;;;;;;5103961;28;19913;-59
2023/10/05 13:11:29;;;;;;;;;;;;;;;;;;5096298;28;19909;-59
2023/10/05 13:13:55;;;;;;;;;;;;;;;;;;5106101;28;19920;-60
2023/10/05 13:16:21;;;;;;;;;;;;;;;;;;5113444;28;19942;-60
2023/10/05 13:18:47;;;;;;;;;;;;;;;;;;5108466;28;19976;-58
2023/10/05 13:21:14;;;;;;;;;;;;;;;;;;5104877;28;19916;-58
2023/10/05 13:23:39;;;;;;;;;;;;;;;;;;5104299;28;19912;-59
2023/10/05 13:26:08;;;;;;;;;;;;;;;;;;5116577;28;19982;-59
2023/10/05 13:28:34;;;;;;;;;;;;;;;;;;5116125;28;19912;-59
2023/10/05 13:31:05;;;;;;;;;;;;;;;;;;5103116;28;19927;-60
2023/10/05 13:33:34;;;;;;;;;;;;;;;;;;5100972;28;19955;-58
2023/10/05 13:36:04;;;;;;;;;;;;;;;;;;5108631;28;19938;-59
2023/10/05 13:38:30;;;;;;;;;;;;;;;;;;5111221;28;19912;-58
2023/10/05 13:40:59;;;;;;;;;;;;;;;;;;5108410;28;19955;-58
2023/10/05 13:43:26;;;;;;;;;;;;;;;;;;5103819;28;19920;-57
2023/10/05 13:45:51;;;;;;;;;;;;;;;;;;5123740;28;19912;-59
2023/10/05 13:48:17;;;;;;;;;;;;;;;;;;5108356;28;19923;-57
2023/10/05 13:50:42;;;;;;;;;;;;;;;;;;5099821;28;19940;-58
2023/10/05 13:53:10;;;;;;;;;;;;;;;;;;5097118;28;19912;-59
2023/10/05 13:55:36;;;;;;;;;;;;;;;;;;5103898;28;19913;-59
2023/10/05 13:58:02;;;;;;;;;;;;;;;;;;5107790;28;19922;-59
2023/10/05 14:00:29;;;;;;;;;;;;;;;;;;5099500;28;19916;-59
2023/10/05 14:02:56;;;;;;;;;;;;;;;;;;5105872;28;19927;-59
2023/10/05 14:05:22;;;;;;;;;;;;;;;;;;5103321;28;19926;-59
2023/10/05 14:07:51;;;;;;;;;;;;;;;;;;5103517;28;19916;-60
2023/10/05 14:10:18;;;;;;;;;;;;;;;;;;5103352;28;19942;-59
2023/10/05 14:12:44;;;;;;;;;;;;;;;;;;5108540;28;19908;-60
2023/10/05 14:15:10;;;;;;;;;;;;;;;;;;5095761;28;19948;-61
2023/10/05 14:17:37;;;;;;;;;;;;;;;;;;5112397;28;19912;-60
2023/10/05 14:20:04;;;;;;;;;;;;;;;;;;5097476;28;19912;-58
2023/10/05 14:22:33;;;;;;;;;;;;;;;;;;5108836;28;19947;-58
2023/10/05 14:25:06;;;;;;;;;;;;;;;;;;5095692;28;19936;-60
2023/10/05 14:27:31;;;;;;;;;;;;;;;;;;5096433;28;19916;-60
2023/10/05 14:29:57;;;;;;;;;;;;;;;;;;5096785;28;20007;-60
2023/10/05 14:32:23;;;;;;;;;;;;;;;;;;5096814;28;19976;-60
2023/10/05 14:34:52;;;;;;;;;;;;;;;;;;5101778;28;19912;-60
2023/10/05 14:37:18;;;;;;;;;;;;;;;;;;5087063;28;19912;-59
2023/10/05 14:39:45;;;;;;;;;;;;;;;;;;5101140;28;19923;-59
2023/10/05 14:42:10;;;;;;;;;;;;;;;;;;5095243;28;19952;-58
2023/10/05 14:44:36;;;;;;;;;;;;;;;;;;5101019;28;19923;-59
2023/10/05 14:47:04;;;;;;;;;;;;;;;;;;5114708;28;19912;-59
2023/10/05 14:49:31;;;;;;;;;;;;;;;;;;5113800;28;20000;-60
2023/10/05 14:51:57;;;;;;;;;;;;;;;;;;5115020;28;19981;-59
2023/10/05 14:54:22;;;;;;;;;;;;;;;;;;5108699;28;19912;-58
2023/10/05 14:56:48;;;;;;;;;;;;;;;;;;5114171;28;19924;-59
2023/10/05 14:59:13;;;;;;;;;;;;;;;;;;5113677;28;19922;-60
2023/10/05 15:01:40;;;;;;;;;;;;;;;;;;5114808;28;19916;-59
2023/10/05 15:04:06;;;;;;;;;;;;;;;;;;5108926;28;20024;-59
2023/10/05 15:06:31;;;;;;;;;;;;;;;;;;5114536;28;19934;-60
2023/10/05 15:08:57;;;;;;;;;;;;;;;;;;5114213;28;19916;-59
2023/10/05 15:11:26;;;;;;;;;;;;;;;;;;5114435;28;19912;-58
2023/10/05 15:13:52;;;;;;;;;;;;;;;;;;5112068;28;19912;-60
2023/10/05 15:16:17;;;;;;;;;;;;;;;;;;5094671;28;19916;-59
2023/10/05 15:18:43;;;;;;;;;;;;;;;;;;5105603;28;19912;-60
2023/10/05 15:21:08;;;;;;;;;;;;;;;;;;5102311;28;19939;-59
2023/10/05 15:23:34;;;;;;;;;;;;;;;;;;5107102;28;19942;-59
2023/10/05 15:26:00;;;;;;;;;;;;;;;;;;5114175;28;19965;-58
2023/10/05 15:28:26;;;;;;;;;;;;;;;;;;5113283;28;19938;-59
2023/10/05 15:30:52;;;;;;;;;;;;;;;;;;5100012;28;19913;-60
2023/10/05 15:33:17;;;;;;;;;;;;;;;;;;5094251;28;19916;-59
2023/10/05 15:35:43;;;;;;;;;;;;;;;;;;5102471;28;20039;-60
2023/10/05 15:38:08;;;;;;;;;;;;;;;;;;5098933;28;19912;-59
2023/10/05 15:40:35;;;;;;;;;;;;;;;;;;5109762;28;19917;-59
2023/10/05 15:43:01;;;;;;;;;;;;;;;;;;5097162;28;19913;-59
2023/10/05 15:45:29;;;;;;;;;;;;;;;;;;5103490;28;19913;-60
2023/10/05 15:47:55;;;;;;;;;;;;;;;;;;5099872;28;19912;-59
2023/10/05 15:50:21;;;;;;;;;;;;;;;;;;5102299;28;19927;-60
2023/10/05 15:52:50;;;;;;;;;;;;;;;;;;5116370;28;20111;-60
2023/10/05 15:55:16;;;;;;;;;;;;;;;;;;5101096;28;19920;-58
2023/10/05 15:57:46;;;;;;;;;;;;;;;;;;5105870;28;19912;-59
2023/10/05 16:00:15;;;;;;;;;;;;;;;;;;5109159;28;19938;-59
2023/10/05 16:02:41;;;;;;;;;;;;;;;;;;5105781;28;19921;-55
2023/10/05 16:05:06;;;;;;;;;;;;;;;;;;5097297;28;19932;-59
2023/10/05 16:07:32;;;;;;;;;;;;;;;;;;5106418;28;19923;-59
2023/10/05 16:10:00;;;;;;;;;;;;;;;;;;5127778;28;19917;-59
2023/10/05 16:12:25;;;;;;;;;;;;;;;;;;5104812;28;19943;-59
2023/10/05 16:14:52;;;;;;;;;;;;;;;;;;5111332;28;19976;-56
2023/10/05 16:17:18;;;;;;;;;;;;;;;;;;5102138;28;19920;-58
2023/10/05 16:19:44;;;;;;;;;;;;;;;;;;5090988;28;19913;-60
2023/10/05 16:22:12;;;;;;;;;;;;;;;;;;5107578;28;19916;-58
2023/10/05 16:24:37;;;;;;;;;;;;;;;;;;5097204;28;19912;-56
2023/10/05 16:27:03;;;;;;;;;;;;;;;;;;5097589;28;19960;-59
2023/10/05 16:29:28;;;;;;;;;;;;;;;;;;5078366;28;19916;-60
2023/10/05 16:31:54;;;;;;;;;;;;;;;;;;5094826;28;19920;-58
2023/10/05 16:34:20;;;;;;;;;;;;;;;;;;5094410;28;19916;-59
2023/10/05 16:36:46;;;;;;;;;;;;;;;;;;5094624;28;19940;-58
2023/10/05 16:39:12;;;;;;;;;;;;;;;;;;5095477;28;19913;-56
2023/10/05 16:41:38;;;;;;;;;;;;;;;;;;5097439;28;19926;-58
2023/10/05 16:44:03;;;;;;;;;;;;;;;;;;5090654;28;19912;-60
2023/10/05 16:46:28;;;;;;;;;;;;;;;;;;5102239;28;20192;-56
2023/10/05 16:48:55;;;;;;;;;;;;;;;;;;5094342;28;19912;-57
2023/10/05 16:51:20;;;;;;;;;;;;;;;;;;5103697;28;19912;-55
2023/10/05 16:53:46;;;;;;;;;;;;;;;;;;5100539;28;19912;-56
2023/10/05 16:56:11;;;;;;;;;;;;;;;;;;5088803;28;19924;-57
2023/10/05 16:58:37;;;;;;;;;;;;;;;;;;5086838;28;19936;-58
2023/10/05 17:01:04;;;;;;;;;;;;;;;;;;5106188;28;19913;-56
2023/10/05 17:03:29;;;;;;;;;;;;;;;;;;5109501;28;19924;-59
2023/10/05 17:05:55;;;;;;;;;;;;;;;;;;5095164;28;19912;-58
2023/10/05 17:08:23;;;;;;;;;;;;;;;;;;5088548;28;19962;-57
2023/10/05 17:10:48;;;;;;;;;;;;;;;;;;5093775;28;19916;-57
2023/10/05 17:13:14;;;;;;;;;;;;;;;;;;5082004;28;19913;-58
2023/10/05 17:15:39;;;;;;;;;;;;;;;;;;5095190;28;19968;-57